Terminal Aerodrome Forecast
Issued by NWS

Home | Current Version | Previous Version | Text Only | Print | Product List | Glossary Off
Versions: 1 2 3 4 5 6 7 8 9 10 11 12 13 14 15 16 17 18 19 20 21 22

000
FTUS43 KUNR 141120
TAFGCC
TAF
KGCC 141120Z 1412/1512 27010KT P6SM BKN070
     FM141800 33015G25KT 1 1/2SM -SN BKN009
     FM150300 35009KT P6SM OVC035
      AMD NOT SKED=

USA.gov is the U.S. government's official web portal to all federal, state and local government web resources and services.